sensor_id;sensor_type;location;lat;lon;timestamp;temperature;humidity
50162;DHT22;36061;48.116;11.612;2023-03-25T00:00:07;9.20;99.90
50162;DHT22;36061;48.116;11.612;2023-03-25T00:02:39;9.10;99.90
50162;DHT22;36061;48.116;11.612;2023-03-25T00:05:07;9.10;99.90
50162;DHT22;36061;48.116;11.612;2023-03-25T00:07:35;9.10;99.90
50162;DHT22;36061;48.116;11.612;2023-03-25T00:10:03;9.10;99.90
50162;DHT22;36061;48.116;11.612;2023-03-25T00:12:31;9.10;99.90
50162;DHT22;36061;48.116;11.612;2023-03-25T00:14:59;9.10;99.90
50162;DHT22;36061;48.116;11.612;2023-03-25T00:17:26;9.00;99.90
50162;DHT22;36061;48.116;11.612;2023-03-25T00:19:53;9.00;99.90
50162;DHT22;36061;48.116;11.612;2023-03-25T00:22:21;9.00;99.90
50162;DHT22;36061;48.116;11.612;2023-03-25T00:24:49;8.90;99.90
50162;DHT22;36061;48.116;11.612;2023-03-25T00:27:16;8.90;99.90
50162;DHT22;36061;48.116;11.612;2023-03-25T00:29:45;8.90;99.90
50162;DHT22;36061;48.116;11.612;2023-03-25T00:32:14;8.90;99.90
50162;DHT22;36061;48.116;11.612;2023-03-25T00:34:42;8.90;99.90
50162;DHT22;36061;48.116;11.612;2023-03-25T00:37:12;9.00;99.90
50162;DHT22;36061;48.116;11.612;2023-03-25T00:39:43;8.90;99.90
50162;DHT22;36061;48.116;11.612;2023-03-25T00:42:10;8.90;99.90
50162;DHT22;36061;48.116;11.612;2023-03-25T00:44:39;8.90;99.90
50162;DHT22;36061;48.116;11.612;2023-03-25T00:47:07;8.80;99.90
50162;DHT22;36061;48.116;11.612;2023-03-25T00:49:36;8.90;99.90
50162;DHT22;36061;48.116;11.612;2023-03-25T00:52:03;8.90;99.90
50162;DHT22;36061;48.116;11.612;2023-03-25T00:54:31;8.90;99.90
50162;DHT22;36061;48.116;11.612;2023-03-25T00:56:59;8.90;99.90
50162;DHT22;36061;48.116;11.612;2023-03-25T00:59:27;9.10;99.90
50162;DHT22;36061;48.116;11.612;2023-03-25T01:01:54;9.10;99.90
50162;DHT22;36061;48.116;11.612;2023-03-25T01:04:24;9.10;99.90
50162;DHT22;36061;48.116;11.612;2023-03-25T01:06:52;9.20;99.90
50162;DHT22;36061;48.116;11.612;2023-03-25T01:09:20;9.20;99.90
50162;DHT22;36061;48.116;11.612;2023-03-25T01:11:48;9.30;99.90
50162;DHT22;36061;48.116;11.612;2023-03-25T01:14:18;9.40;99.90
50162;DHT22;36061;48.116;11.612;2023-03-25T01:16:45;9.40;99.90
50162;DHT22;36061;48.116;11.612;2023-03-25T01:19:13;9.30;99.90
50162;DHT22;36061;48.116;11.612;2023-03-25T01:21:42;9.30;99.90
50162;DHT22;36061;48.116;11.612;2023-03-25T01:24:12;9.30;99.90
50162;DHT22;36061;48.116;11.612;2023-03-25T01:26:39;9.40;99.90
50162;DHT22;36061;48.116;11.612;2023-03-25T01:29:08;9.40;99.90
50162;DHT22;36061;48.116;11.612;2023-03-25T01:31:36;9.40;99.90
50162;DHT22;36061;48.116;11.612;2023-03-25T01:34:03;9.40;99.90
50162;DHT22;36061;48.116;11.612;2023-03-25T01:36:31;9.40;99.90
50162;DHT22;36061;48.116;11.612;2023-03-25T01:38:59;9.40;99.90
50162;DHT22;36061;48.116;11.612;2023-03-25T01:41:28;9.40;99.90
50162;DHT22;36061;48.116;11.612;2023-03-25T01:44:01;9.40;99.90
50162;DHT22;36061;48.116;11.612;2023-03-25T01:46:28;9.40;99.90
50162;DHT22;36061;48.116;11.612;2023-03-25T01:48:56;9.40;99.90
50162;DHT22;36061;48.116;11.612;2023-03-25T01:51:28;9.40;99.90
50162;DHT22;36061;48.116;11.612;2023-03-25T01:53:55;9.50;99.90
50162;DHT22;36061;48.116;11.612;2023-03-25T01:56:27;9.50;99.90
50162;DHT22;36061;48.116;11.612;2023-03-25T01:58:58;9.50;99.90
50162;DHT22;36061;48.116;11.612;2023-03-25T02:01:27;9.50;99.90
50162;DHT22;36061;48.116;11.612;2023-03-25T02:03:57;9.60;99.90
50162;DHT22;36061;48.116;11.612;2023-03-25T02:06:32;9.50;99.90
50162;DHT22;36061;48.116;11.612;2023-03-25T02:09:02;9.50;99.90
50162;DHT22;36061;48.116;11.612;2023-03-25T02:11:32;9.50;99.90
50162;DHT22;36061;48.116;11.612;2023-03-25T02:14:03;9.50;99.90
50162;DHT22;36061;48.116;11.612;2023-03-25T02:16:37;9.50;99.90
50162;DHT22;36061;48.116;11.612;2023-03-25T02:19:27;9.40;99.90
50162;DHT22;36061;48.116;11.612;2023-03-25T02:28:31;9.40;99.90
50162;DHT22;36061;48.116;11.612;2023-03-25T02:31:14;9.40;99.90
50162;DHT22;36061;48.116;11.612;2023-03-25T02:34:06;9.40;99.90
50162;DHT22;36061;48.116;11.612;2023-03-25T02:37:05;9.30;99.90
50162;DHT22;36061;48.116;11.612;2023-03-25T02:39:41;9.30;99.90
50162;DHT22;36061;48.116;11.612;2023-03-25T02:42:15;9.20;99.90
50162;DHT22;36061;48.116;11.612;2023-03-25T02:44:50;9.20;99.90
50162;DHT22;36061;48.116;11.612;2023-03-25T02:47:23;9.10;99.90
50162;DHT22;36061;48.116;11.612;2023-03-25T02:49:54;9.10;99.90
50162;DHT22;36061;48.116;11.612;2023-03-25T02:52:25;9.10;99.90
50162;DHT22;36061;48.116;11.612;2023-03-25T02:54:58;9.00;99.90
50162;DHT22;36061;48.116;11.612;2023-03-25T02:57:32;9.00;99.90
50162;DHT22;36061;48.116;11.612;2023-03-25T03:00:02;9.10;99.90
50162;DHT22;36061;48.116;11.612;2023-03-25T03:02:35;9.10;99.90
50162;DHT22;36061;48.116;11.612;2023-03-25T03:05:21;9.10;99.90
50162;DHT22;36061;48.116;11.612;2023-03-25T03:07:54;9.00;99.90
50162;DHT22;36061;48.116;11.612;2023-03-25T03:10:29;9.00;99.90
50162;DHT22;36061;48.116;11.612;2023-03-25T03:13:03;8.90;99.90
50162;DHT22;36061;48.116;11.612;2023-03-25T03:15:41;8.90;99.90
50162;DHT22;36061;48.116;11.612;2023-03-25T03:18:16;8.90;99.90
50162;DHT22;36061;48.116;11.612;2023-03-25T03:20:55;9.00;99.90
50162;DHT22;36061;48.116;11.612;2023-03-25T03:23:28;8.90;99.90
50162;DHT22;36061;48.116;11.612;2023-03-25T03:26:05;8.90;99.90
50162;DHT22;36061;48.116;11.612;2023-03-25T03:28:40;8.80;99.90
50162;DHT22;36061;48.116;11.612;2023-03-25T03:31:15;8.80;99.90
50162;DHT22;36061;48.116;11.612;2023-03-25T03:33:48;8.70;99.90
50162;DHT22;36061;48.116;11.612;2023-03-25T03:36:24;8.70;99.90
50162;DHT22;36061;48.116;11.612;2023-03-25T03:39:00;8.60;99.90
50162;DHT22;36061;48.116;11.612;2023-03-25T03:41:33;8.60;99.90
50162;DHT22;36061;48.116;11.612;2023-03-25T03:44:05;8.60;99.90
50162;DHT22;36061;48.116;11.612;2023-03-25T03:46:36;8.60;99.90
50162;DHT22;36061;48.116;11.612;2023-03-25T03:49:07;8.60;99.90
50162;DHT22;36061;48.116;11.612;2023-03-25T03:51:37;8.60;99.90
50162;DHT22;36061;48.116;11.612;2023-03-25T03:54:09;8.50;99.90
50162;DHT22;36061;48.116;11.612;2023-03-25T03:56:41;8.50;99.90
50162;DHT22;36061;48.116;11.612;2023-03-25T03:59:13;8.50;99.90
50162;DHT22;36061;48.116;11.612;2023-03-25T04:01:45;8.50;99.90
50162;DHT22;36061;48.116;11.612;2023-03-25T04:04:17;8.40;99.90
50162;DHT22;36061;48.116;11.612;2023-03-25T04:06:50;8.40;99.90
50162;DHT22;36061;48.116;11.612;2023-03-25T04:09:23;8.30;99.90
50162;DHT22;36061;48.116;11.612;2023-03-25T04:11:58;8.30;99.90
50162;DHT22;36061;48.116;11.612;2023-03-25T04:14:26;8.30;99.90
50162;DHT22;36061;48.116;11.612;2023-03-25T04:16:54;8.20;99.90
50162;DHT22;36061;48.116;11.612;2023-03-25T04:19:21;8.20;99.90
50162;DHT22;36061;48.116;11.612;2023-03-25T04:21:48;8.10;99.90
50162;DHT22;36061;48.116;11.612;2023-03-25T04:24:15;8.10;99.90
50162;DHT22;36061;48.116;11.612;2023-03-25T04:26:44;8.10;99.90
50162;DHT22;36061;48.116;11.612;2023-03-25T04:29:13;8.10;99.90
50162;DHT22;36061;48.116;11.612;2023-03-25T04:31:41;8.10;99.90
50162;DHT22;36061;48.116;11.612;2023-03-25T04:34:11;8.10;99.90
50162;DHT22;36061;48.116;11.612;2023-03-25T04:36:40;8.10;99.90
50162;DHT22;36061;48.116;11.612;2023-03-25T04:39:08;8.20;99.90
50162;DHT22;36061;48.116;11.612;2023-03-25T04:41:37;8.10;99.90
50162;DHT22;36061;48.116;11.612;2023-03-25T04:44:04;8.10;99.90
50162;DHT22;36061;48.116;11.612;2023-03-25T04:46:35;8.10;99.90
50162;DHT22;36061;48.116;11.612;2023-03-25T04:49:03;8.20;99.90
50162;DHT22;36061;48.116;11.612;2023-03-25T04:51:39;8.20;99.90
50162;DHT22;36061;48.116;11.612;2023-03-25T04:54:09;8.20;99.90
50162;DHT22;36061;48.116;11.612;2023-03-25T04:56:37;8.20;99.90
50162;DHT22;36061;48.116;11.612;2023-03-25T04:59:05;8.20;99.90
50162;DHT22;36061;48.116;11.612;2023-03-25T05:01:36;8.20;99.90
50162;DHT22;36061;48.116;11.612;2023-03-25T05:04:08;8.30;99.90
50162;DHT22;36061;48.116;11.612;2023-03-25T05:06:39;8.40;99.90
50162;DHT22;36061;48.116;11.612;2023-03-25T05:09:08;8.30;99.90
50162;DHT22;36061;48.116;11.612;2023-03-25T05:11:36;8.30;99.90
50162;DHT22;36061;48.116;11.612;2023-03-25T05:14:05;8.30;99.90
50162;DHT22;36061;48.116;11.612;2023-03-25T05:16:34;8.30;99.90
50162;DHT22;36061;48.116;11.612;2023-03-25T05:19:01;8.30;99.90
50162;DHT22;36061;48.116;11.612;2023-03-25T05:21:31;8.20;99.90
50162;DHT22;36061;48.116;11.612;2023-03-25T05:24:00;8.20;99.90
50162;DHT22;36061;48.116;11.612;2023-03-25T05:26:28;8.30;99.90
50162;DHT22;36061;48.116;11.612;2023-03-25T05:29:00;8.30;99.90
50162;DHT22;36061;48.116;11.612;2023-03-25T05:31:27;8.30;99.90
50162;DHT22;36061;48.116;11.612;2023-03-25T05:33:56;8.30;99.90
50162;DHT22;36061;48.116;11.612;2023-03-25T05:36:24;8.30;99.90
50162;DHT22;36061;48.116;11.612;2023-03-25T05:38:52;8.30;99.90
50162;DHT22;36061;48.116;11.612;2023-03-25T05:41:21;8.30;99.90
50162;DHT22;36061;48.116;11.612;2023-03-25T05:43:57;8.30;99.90
50162;DHT22;36061;48.116;11.612;2023-03-25T05:46:26;8.30;99.90
50162;DHT22;36061;48.116;11.612;2023-03-25T05:48:56;8.40;99.90
50162;DHT22;36061;48.116;11.612;2023-03-25T05:51:28;8.50;99.90
50162;DHT22;36061;48.116;11.612;2023-03-25T05:53:58;8.60;99.90
50162;DHT22;36061;48.116;11.612;2023-03-25T05:56:26;8.60;99.90
50162;DHT22;36061;48.116;11.612;2023-03-25T05:58:53;8.60;99.90
50162;DHT22;36061;48.116;11.612;2023-03-25T06:01:21;8.60;99.90
50162;DHT22;36061;48.116;11.612;2023-03-25T06:03:48;8.60;99.90
50162;DHT22;36061;48.116;11.612;2023-03-25T06:06:17;8.60;99.90
50162;DHT22;36061;48.116;11.612;2023-03-25T06:08:50;8.60;99.90
50162;DHT22;36061;48.116;11.612;2023-03-25T06:11:18;8.60;99.90
50162;DHT22;36061;48.116;11.612;2023-03-25T06:13:47;8.50;99.90
50162;DHT22;36061;48.116;11.612;2023-03-25T06:16:16;8.50;99.90
50162;DHT22;36061;48.116;11.612;2023-03-25T06:18:45;8.50;99.90
50162;DHT22;36061;48.116;11.612;2023-03-25T06:21:18;8.40;99.90
50162;DHT22;36061;48.116;11.612;2023-03-25T06:23:46;8.40;99.90
50162;DHT22;36061;48.116;11.612;2023-03-25T06:26:14;8.50;99.90
50162;DHT22;36061;48.116;11.612;2023-03-25T06:28:41;8.60;99.90
50162;DHT22;36061;48.116;11.612;2023-03-25T06:31:12;8.50;99.90
50162;DHT22;36061;48.116;11.612;2023-03-25T06:33:41;8.50;99.90
50162;DHT22;36061;48.116;11.612;2023-03-25T06:36:09;8.50;99.90
50162;DHT22;36061;48.116;11.612;2023-03-25T06:38:38;8.50;99.90
50162;DHT22;36061;48.116;11.612;2023-03-25T06:41:12;8.50;99.90
50162;DHT22;36061;48.116;11.612;2023-03-25T06:43:40;8.50;99.90
50162;DHT22;36061;48.116;11.612;2023-03-25T06:46:10;8.50;99.90
50162;DHT22;36061;48.116;11.612;2023-03-25T06:49:09;8.40;99.90
50162;DHT22;36061;48.116;11.612;2023-03-25T06:51:37;8.40;99.90
50162;DHT22;36061;48.116;11.612;2023-03-25T06:54:05;8.50;99.90
50162;DHT22;36061;48.116;11.612;2023-03-25T06:56:33;8.50;99.90
50162;DHT22;36061;48.116;11.612;2023-03-25T06:59:00;8.50;99.90
50162;DHT22;36061;48.116;11.612;2023-03-25T07:01:28;8.50;99.90
50162;DHT22;36061;48.116;11.612;2023-03-25T07:03:55;8.40;99.90
50162;DHT22;36061;48.116;11.612;2023-03-25T07:06:22;8.20;99.90
50162;DHT22;36061;48.116;11.612;2023-03-25T07:08:50;8.20;99.90
50162;DHT22;36061;48.116;11.612;2023-03-25T07:11:25;8.30;99.90
50162;DHT22;36061;48.116;11.612;2023-03-25T07:13:52;8.30;99.90
50162;DHT22;36061;48.116;11.612;2023-03-25T07:16:20;8.30;99.90
50162;DHT22;36061;48.116;11.612;2023-03-25T07:18:47;8.40;99.90
50162;DHT22;36061;48.116;11.612;2023-03-25T07:21:16;8.40;99.90
50162;DHT22;36061;48.116;11.612;2023-03-25T07:23:43;8.40;99.90
50162;DHT22;36061;48.116;11.612;2023-03-25T07:26:10;8.40;99.90
50162;DHT22;36061;48.116;11.612;2023-03-25T07:28:39;8.40;99.90
50162;DHT22;36061;48.116;11.612;2023-03-25T07:31:07;8.40;99.90
50162;DHT22;36061;48.116;11.612;2023-03-25T07:33:34;8.50;99.90
50162;DHT22;36061;48.116;11.612;2023-03-25T07:36:02;8.40;99.90
50162;DHT22;36061;48.116;11.612;2023-03-25T07:38:29;8.40;99.90
50162;DHT22;36061;48.116;11.612;2023-03-25T07:40:57;8.40;99.90
50162;DHT22;36061;48.116;11.612;2023-03-25T07:43:24;8.40;99.90
50162;DHT22;36061;48.116;11.612;2023-03-25T07:45:57;8.40;99.90
50162;DHT22;36061;48.116;11.612;2023-03-25T07:48:27;8.40;99.90
50162;DHT22;36061;48.116;11.612;2023-03-25T07:50:54;8.30;99.90
50162;DHT22;36061;48.116;11.612;2023-03-25T07:53:22;8.40;99.90
50162;DHT22;36061;48.116;11.612;2023-03-25T07:55:49;8.50;99.90
50162;DHT22;36061;48.116;11.612;2023-03-25T07:58:16;8.50;99.90
50162;DHT22;36061;48.116;11.612;2023-03-25T08:00:44;8.50;99.90
50162;DHT22;36061;48.116;11.612;2023-03-25T08:03:13;8.60;99.90
50162;DHT22;36061;48.116;11.612;2023-03-25T08:05:44;8.60;99.90
50162;DHT22;36061;48.116;11.612;2023-03-25T08:08:12;8.70;99.90
50162;DHT22;36061;48.116;11.612;2023-03-25T08:10:41;8.80;99.90
50162;DHT22;36061;48.116;11.612;2023-03-25T08:13:09;8.70;99.90
50162;DHT22;36061;48.116;11.612;2023-03-25T08:15:36;8.80;99.90
50162;DHT22;36061;48.116;11.612;2023-03-25T08:18:07;8.80;99.90
50162;DHT22;36061;48.116;11.612;2023-03-25T08:20:39;8.90;99.90
50162;DHT22;36061;48.116;11.612;2023-03-25T08:23:07;9.10;99.90
50162;DHT22;36061;48.116;11.612;2023-03-25T08:25:36;9.30;99.90
50162;DHT22;36061;48.116;11.612;2023-03-25T08:28:04;9.20;99.90
50162;DHT22;36061;48.116;11.612;2023-03-25T08:30:32;9.10;99.90
50162;DHT22;36061;48.116;11.612;2023-03-25T08:33:04;9.10;99.90
50162;DHT22;36061;48.116;11.612;2023-03-25T08:35:34;9.00;99.90
50162;DHT22;36061;48.116;11.612;2023-03-25T08:38:03;9.10;99.90
50162;DHT22;36061;48.116;11.612;2023-03-25T08:40:31;8.80;99.90
50162;DHT22;36061;48.116;11.612;2023-03-25T08:42:59;9.20;99.90
50162;DHT22;36061;48.116;11.612;2023-03-25T08:45:26;9.20;99.90
50162;DHT22;36061;48.116;11.612;2023-03-25T08:47:53;9.10;99.90
50162;DHT22;36061;48.116;11.612;2023-03-25T08:50:20;9.10;99.90
50162;DHT22;36061;48.116;11.612;2023-03-25T08:52:48;9.10;99.90
50162;DHT22;36061;48.116;11.612;2023-03-25T08:55:19;9.10;99.90
50162;DHT22;36061;48.116;11.612;2023-03-25T08:57:47;9.20;99.90
50162;DHT22;36061;48.116;11.612;2023-03-25T09:00:14;9.40;99.90
50162;DHT22;36061;48.116;11.612;2023-03-25T09:02:43;9.50;99.90
50162;DHT22;36061;48.116;11.612;2023-03-25T09:05:12;9.50;99.90
50162;DHT22;36061;48.116;11.612;2023-03-25T09:07:40;9.40;99.90
50162;DHT22;36061;48.116;11.612;2023-03-25T09:10:09;9.30;99.90
50162;DHT22;36061;48.116;11.612;2023-03-25T09:12:39;9.30;99.90
50162;DHT22;36061;48.116;11.612;2023-03-25T09:15:07;9.30;99.90
50162;DHT22;36061;48.116;11.612;2023-03-25T09:17:36;9.30;99.90
50162;DHT22;36061;48.116;11.612;2023-03-25T09:20:04;9.30;99.90
50162;DHT22;36061;48.116;11.612;2023-03-25T09:22:33;9.30;99.90
50162;DHT22;36061;48.116;11.612;2023-03-25T09:25:00;9.30;99.90
50162;DHT22;36061;48.116;11.612;2023-03-25T09:27:28;9.20;99.90
50162;DHT22;36061;48.116;11.612;2023-03-25T09:29:57;9.30;99.90
50162;DHT22;36061;48.116;11.612;2023-03-25T09:32:24;9.50;99.90
50162;DHT22;36061;48.116;11.612;2023-03-25T09:34:51;9.70;99.90
50162;DHT22;36061;48.116;11.612;2023-03-25T09:37:18;9.90;99.90
50162;DHT22;36061;48.116;11.612;2023-03-25T09:39:46;9.90;99.90
50162;DHT22;36061;48.116;11.612;2023-03-25T09:42:28;10.00;99.90
50162;DHT22;36061;48.116;11.612;2023-03-25T09:45:05;10.00;99.90
50162;DHT22;36061;48.116;11.612;2023-03-25T09:47:49;10.00;99.90
50162;DHT22;36061;48.116;11.612;2023-03-25T09:50:18;9.90;99.90
50162;DHT22;36061;48.116;11.612;2023-03-25T09:52:51;9.90;99.90
50162;DHT22;36061;48.116;11.612;2023-03-25T09:55:23;10.00;99.90
50162;DHT22;36061;48.116;11.612;2023-03-25T09:57:56;10.20;99.90
50162;DHT22;36061;48.116;11.612;2023-03-25T10:00:26;10.30;99.90
50162;DHT22;36061;48.116;11.612;2023-03-25T10:03:06;10.30;99.90
50162;DHT22;36061;48.116;11.612;2023-03-25T10:05:55;10.30;99.90
50162;DHT22;36061;48.116;11.612;2023-03-25T10:08:31;10.30;99.90
50162;DHT22;36061;48.116;11.612;2023-03-25T10:11:03;10.20;99.90
50162;DHT22;36061;48.116;11.612;2023-03-25T10:13:39;10.30;99.90
50162;DHT22;36061;48.116;11.612;2023-03-25T10:16:19;10.40;99.90
50162;DHT22;36061;48.116;11.612;2023-03-25T10:18:57;10.40;99.90
50162;DHT22;36061;48.116;11.612;2023-03-25T10:21:34;10.40;99.90
50162;DHT22;36061;48.116;11.612;2023-03-25T10:24:15;10.50;99.90
50162;DHT22;36061;48.116;11.612;2023-03-25T10:26:46;10.70;99.90
50162;DHT22;36061;48.116;11.612;2023-03-25T10:29:17;10.80;99.90
50162;DHT22;36061;48.116;11.612;2023-03-25T10:31:50;10.80;99.90
50162;DHT22;36061;48.116;11.612;2023-03-25T10:34:19;10.80;99.90
50162;DHT22;36061;48.116;11.612;2023-03-25T10:36:51;10.90;99.90
50162;DHT22;36061;48.116;11.612;2023-03-25T10:39:21;10.90;99.90
50162;DHT22;36061;48.116;11.612;2023-03-25T10:41:51;10.80;99.90
50162;DHT22;36061;48.116;11.612;2023-03-25T10:44:21;10.80;99.90
50162;DHT22;36061;48.116;11.612;2023-03-25T10:46:55;10.80;99.90
50162;DHT22;36061;48.116;11.612;2023-03-25T10:49:27;10.80;99.90
50162;DHT22;36061;48.116;11.612;2023-03-25T10:51:55;10.80;99.90
50162;DHT22;36061;48.116;11.612;2023-03-25T10:54:27;10.70;99.90
50162;DHT22;36061;48.116;11.612;2023-03-25T10:56:58;10.60;99.90
50162;DHT22;36061;48.116;11.612;2023-03-25T10:59:30;10.60;99.90
50162;DHT22;36061;48.116;11.612;2023-03-25T11:02:03;10.70;99.90
50162;DHT22;36061;48.116;11.612;2023-03-25T11:04:41;10.70;99.90
50162;DHT22;36061;48.116;11.612;2023-03-25T11:07:15;10.70;99.90
50162;DHT22;36061;48.116;11.612;2023-03-25T11:09:43;10.70;99.90
50162;DHT22;36061;48.116;11.612;2023-03-25T11:12:10;10.90;99.90
50162;DHT22;36061;48.116;11.612;2023-03-25T11:14:39;11.10;99.90
50162;DHT22;36061;48.116;11.612;2023-03-25T11:17:12;11.20;99.90
50162;DHT22;36061;48.116;11.612;2023-03-25T11:19:44;11.40;99.90
50162;DHT22;36061;48.116;11.612;2023-03-25T11:22:15;11.60;99.90
50162;DHT22;36061;48.116;11.612;2023-03-25T11:24:47;11.60;99.90
50162;DHT22;36061;48.116;11.612;2023-03-25T11:27:17;11.60;99.90
50162;DHT22;36061;48.116;11.612;2023-03-25T11:29:50;11.60;99.90
50162;DHT22;36061;48.116;11.612;2023-03-25T11:32:23;11.40;99.90
50162;DHT22;36061;48.116;11.612;2023-03-25T11:34:52;11.20;99.90
50162;DHT22;36061;48.116;11.612;2023-03-25T11:37:21;11.10;99.90
50162;DHT22;36061;48.116;11.612;2023-03-25T11:39:50;11.00;99.90
50162;DHT22;36061;48.116;11.612;2023-03-25T11:42:29;11.00;99.90
50162;DHT22;36061;48.116;11.612;2023-03-25T11:44:59;11.10;99.90
50162;DHT22;36061;48.116;11.612;2023-03-25T11:47:31;11.30;99.90
50162;DHT22;36061;48.116;11.612;2023-03-25T11:49:59;11.20;99.90
50162;DHT22;36061;48.116;11.612;2023-03-25T11:52:32;11.10;99.90
50162;DHT22;36061;48.116;11.612;2023-03-25T11:55:02;11.10;99.90
50162;DHT22;36061;48.116;11.612;2023-03-25T11:57:34;11.20;99.90
50162;DHT22;36061;48.116;11.612;2023-03-25T12:00:14;11.20;99.90
50162;DHT22;36061;48.116;11.612;2023-03-25T12:02:44;11.40;99.90
50162;DHT22;36061;48.116;11.612;2023-03-25T12:05:14;11.30;99.90
50162;DHT22;36061;48.116;11.612;2023-03-25T12:07:43;11.30;99.90
50162;DHT22;36061;48.116;11.612;2023-03-25T12:10:16;11.20;99.90
50162;DHT22;36061;48.116;11.612;2023-03-25T12:12:51;11.30;99.90
50162;DHT22;36061;48.116;11.612;2023-03-25T12:15:29;11.30;99.90
50162;DHT22;36061;48.116;11.612;2023-03-25T12:18:12;11.40;99.90
50162;DHT22;36061;48.116;11.612;2023-03-25T12:20:53;11.40;99.90
50162;DHT22;36061;48.116;11.612;2023-03-25T12:23:31;11.40;99.90
50162;DHT22;36061;48.116;11.612;2023-03-25T12:26:07;11.10;99.90
50162;DHT22;36061;48.116;11.612;2023-03-25T12:29:03;11.00;99.90
50162;DHT22;36061;48.116;11.612;2023-03-25T12:31:42;11.00;99.90
50162;DHT22;36061;48.116;11.612;2023-03-25T12:34:22;11.00;99.90
50162;DHT22;36061;48.116;11.612;2023-03-25T12:36:58;11.00;99.90
50162;DHT22;36061;48.116;11.612;2023-03-25T12:39:41;10.90;99.90
50162;DHT22;36061;48.116;11.612;2023-03-25T12:42:20;10.90;99.90
50162;DHT22;36061;48.116;11.612;2023-03-25T12:45:00;11.00;99.90
50162;DHT22;36061;48.116;11.612;2023-03-25T12:47:34;11.10;99.90
50162;DHT22;36061;48.116;11.612;2023-03-25T12:53:11;11.30;99.90
50162;DHT22;36061;48.116;11.612;2023-03-25T12:55:52;11.40;99.90
50162;DHT22;36061;48.116;11.612;2023-03-25T12:58:47;11.40;99.90
50162;DHT22;36061;48.116;11.612;2023-03-25T13:01:26;11.30;99.90
50162;DHT22;36061;48.116;11.612;2023-03-25T13:04:15;11.20;99.90
50162;DHT22;36061;48.116;11.612;2023-03-25T13:06:53;11.10;99.90
50162;DHT22;36061;48.116;11.612;2023-03-25T13:09:28;11.20;99.90
50162;DHT22;36061;48.116;11.612;2023-03-25T13:11:59;11.20;99.90
50162;DHT22;36061;48.116;11.612;2023-03-25T13:14:32;11.30;99.90
50162;DHT22;36061;48.116;11.612;2023-03-25T13:17:04;11.30;99.90
50162;DHT22;36061;48.116;11.612;2023-03-25T13:19:35;11.30;99.90
50162;DHT22;36061;48.116;11.612;2023-03-25T13:22:15;11.20;99.90
50162;DHT22;36061;48.116;11.612;2023-03-25T13:24:47;11.10;99.90
50162;DHT22;36061;48.116;11.612;2023-03-25T13:27:17;11.00;99.90
50162;DHT22;36061;48.116;11.612;2023-03-25T13:29:48;11.00;99.90
50162;DHT22;36061;48.116;11.612;2023-03-25T13:32:19;11.00;99.90
50162;DHT22;36061;48.116;11.612;2023-03-25T13:34:51;11.00;99.90
50162;DHT22;36061;48.116;11.612;2023-03-25T13:37:24;11.00;99.90
50162;DHT22;36061;48.116;11.612;2023-03-25T13:40:02;11.10;99.90
50162;DHT22;36061;48.116;11.612;2023-03-25T13:42:43;11.10;99.90
50162;DHT22;36061;48.116;11.612;2023-03-25T13:45:16;11.00;99.90
50162;DHT22;36061;48.116;11.612;2023-03-25T13:47:47;10.90;99.90
50162;DHT22;36061;48.116;11.612;2023-03-25T13:50:22;10.90;99.90
50162;DHT22;36061;48.116;11.612;2023-03-25T13:52:55;11.00;99.90
50162;DHT22;36061;48.116;11.612;2023-03-25T13:55:28;11.10;99.90
50162;DHT22;36061;48.116;11.612;2023-03-25T13:58:17;11.10;99.90
50162;DHT22;36061;48.116;11.612;2023-03-25T14:01:01;11.20;99.90
50162;DHT22;36061;48.116;11.612;2023-03-25T14:12:45;10.80;99.90
50162;DHT22;36061;48.116;11.612;2023-03-25T14:15:20;10.80;99.90
50162;DHT22;36061;48.116;11.612;2023-03-25T14:17:48;10.90;99.90
50162;DHT22;36061;48.116;11.612;2023-03-25T14:20:21;10.80;99.90
50162;DHT22;36061;48.116;11.612;2023-03-25T14:22:55;10.70;99.90
50162;DHT22;36061;48.116;11.612;2023-03-25T14:25:31;10.60;99.90
50162;DHT22;36061;48.116;11.612;2023-03-25T14:27:59;10.60;99.90
50162;DHT22;36061;48.116;11.612;2023-03-25T14:30:29;10.60;99.90
50162;DHT22;36061;48.116;11.612;2023-03-25T14:32:57;10.70;99.90
50162;DHT22;36061;48.116;11.612;2023-03-25T14:35:48;10.70;99.90
50162;DHT22;36061;48.116;11.612;2023-03-25T14:38:47;10.80;99.90
50162;DHT22;36061;48.116;11.612;2023-03-25T14:44:15;10.90;99.90
50162;DHT22;36061;48.116;11.612;2023-03-25T14:46:43;11.00;99.90
50162;DHT22;36061;48.116;11.612;2023-03-25T14:49:18;11.00;99.90
50162;DHT22;36061;48.116;11.612;2023-03-25T14:51:49;11.20;99.90
50162;DHT22;36061;48.116;11.612;2023-03-25T14:54:35;11.30;99.90
50162;DHT22;36061;48.116;11.612;2023-03-25T14:57:07;11.30;99.90
50162;DHT22;36061;48.116;11.612;2023-03-25T14:59:39;11.40;99.90
50162;DHT22;36061;48.116;11.612;2023-03-25T15:02:13;11.50;99.90
50162;DHT22;36061;48.116;11.612;2023-03-25T15:04:43;11.50;99.90
50162;DHT22;36061;48.116;11.612;2023-03-25T15:07:16;11.50;99.90
50162;DHT22;36061;48.116;11.612;2023-03-25T15:09:46;11.50;99.90
50162;DHT22;36061;48.116;11.612;2023-03-25T15:12:20;11.40;99.90
50162;DHT22;36061;48.116;11.612;2023-03-25T15:14:54;11.30;99.90
50162;DHT22;36061;48.116;11.612;2023-03-25T15:17:43;11.20;99.90
50162;DHT22;36061;48.116;11.612;2023-03-25T15:20:30;11.20;99.90
50162;DHT22;36061;48.116;11.612;2023-03-25T15:23:27;11.30;99.90
50162;DHT22;36061;48.116;11.612;2023-03-25T15:25:55;11.30;99.90
50162;DHT22;36061;48.116;11.612;2023-03-25T15:28:42;11.40;99.90
50162;DHT22;36061;48.116;11.612;2023-03-25T15:31:24;11.50;99.90
50162;DHT22;36061;48.116;11.612;2023-03-25T15:34:07;11.40;99.90
50162;DHT22;36061;48.116;11.612;2023-03-25T15:39:38;11.30;99.90
50162;DHT22;36061;48.116;11.612;2023-03-25T15:42:32;11.30;99.90
50162;DHT22;36061;48.116;11.612;2023-03-25T15:45:30;11.30;99.90
50162;DHT22;36061;48.116;11.612;2023-03-25T15:51:28;11.30;99.90
50162;DHT22;36061;48.116;11.612;2023-03-25T15:54:25;11.30;99.90
50162;DHT22;36061;48.116;11.612;2023-03-25T15:56:57;11.20;99.90
50162;DHT22;36061;48.116;11.612;2023-03-25T15:59:29;11.10;99.90
50162;DHT22;36061;48.116;11.612;2023-03-25T16:02:02;11.00;99.90
50162;DHT22;36061;48.116;11.612;2023-03-25T16:04:36;10.90;99.90
50162;DHT22;36061;48.116;11.612;2023-03-25T16:07:05;11.00;99.90
50162;DHT22;36061;48.116;11.612;2023-03-25T16:09:39;11.00;99.90
50162;DHT22;36061;48.116;11.612;2023-03-25T16:12:11;11.10;99.90
50162;DHT22;36061;48.116;11.612;2023-03-25T16:14:41;11.10;99.90
50162;DHT22;36061;48.116;11.612;2023-03-25T16:17:12;11.30;99.90
50162;DHT22;36061;48.116;11.612;2023-03-25T16:19:42;11.40;99.90
50162;DHT22;36061;48.116;11.612;2023-03-25T16:22:17;11.50;99.90